sensor_id;sensor_type;location;lat;lon;timestamp;P1;durP1;ratioP1;P2;durP2;ratioP2
13649;SDS011;6898;50.918;4.688;2022-09-12T00:01:12;10.95;;;9.85;;
13649;SDS011;6898;50.918;4.688;2022-09-12T00:03:41;10.85;;;9.73;;
13649;SDS011;6898;50.918;4.688;2022-09-12T00:06:10;11.32;;;10.23;;
13649;SDS011;6898;50.918;4.688;2022-09-12T00:08:41;11.30;;;10.20;;
13649;SDS011;6898;50.918;4.688;2022-09-12T00:11:10;10.98;;;9.88;;
13649;SDS011;6898;50.918;4.688;2022-09-12T00:13:39;11.00;;;9.95;;
13649;SDS011;6898;50.918;4.688;2022-09-12T00:16:13;11.05;;;10.00;;
13649;SDS011;6898;50.918;4.688;2022-09-12T00:18:42;11.03;;;9.93;;
13649;SDS011;6898;50.918;4.688;2022-09-12T00:21:12;11.32;;;10.23;;
13649;SDS011;6898;50.918;4.688;2022-09-12T00:23:45;11.50;;;10.40;;
13649;SDS011;6898;50.918;4.688;2022-09-12T00:26:14;11.90;;;10.55;;
13649;SDS011;6898;50.918;4.688;2022-09-12T00:28:43;12.03;;;10.57;;
13649;SDS011;6898;50.918;4.688;2022-09-12T00:31:12;11.70;;;10.50;;
13649;SDS011;6898;50.918;4.688;2022-09-12T00:33:41;11.40;;;10.30;;
13649;SDS011;6898;50.918;4.688;2022-09-12T00:36:11;11.40;;;10.30;;
13649;SDS011;6898;50.918;4.688;2022-09-12T00:38:40;12.03;;;10.60;;
13649;SDS011;6898;50.918;4.688;2022-09-12T00:41:12;11.38;;;10.18;;
13649;SDS011;6898;50.918;4.688;2022-09-12T00:43:43;11.30;;;10.10;;
13649;SDS011;6898;50.918;4.688;2022-09-12T00:46:17;10.85;;;9.73;;
13649;SDS011;6898;50.918;4.688;2022-09-12T00:48:50;11.50;;;10.13;;
13649;SDS011;6898;50.918;4.688;2022-09-12T00:51:21;10.70;;;9.60;;
13649;SDS011;6898;50.918;4.688;2022-09-12T00:53:50;10.30;;;9.30;;
13649;SDS011;6898;50.918;4.688;2022-09-12T00:56:21;10.35;;;9.32;;
13649;SDS011;6898;50.918;4.688;2022-09-12T00:58:51;11.82;;;10.63;;
13649;SDS011;6898;50.918;4.688;2022-09-12T01:01:22;11.00;;;9.90;;
13649;SDS011;6898;50.918;4.688;2022-09-12T01:03:53;12.07;;;10.30;;
13649;SDS011;6898;50.918;4.688;2022-09-12T01:06:23;11.52;;;10.43;;
13649;SDS011;6898;50.918;4.688;2022-09-12T01:08:53;12.27;;;11.07;;
13649;SDS011;6898;50.918;4.688;2022-09-12T01:11:23;12.50;;;11.30;;
13649;SDS011;6898;50.918;4.688;2022-09-12T01:13:52;12.23;;;11.03;;
13649;SDS011;6898;50.918;4.688;2022-09-12T01:16:21;12.55;;;11.25;;
13649;SDS011;6898;50.918;4.688;2022-09-12T01:18:53;12.70;;;11.40;;
13649;SDS011;6898;50.918;4.688;2022-09-12T01:21:24;12.30;;;10.90;;
13649;SDS011;6898;50.918;4.688;2022-09-12T01:24:06;12.55;;;10.82;;
13649;SDS011;6898;50.918;4.688;2022-09-12T01:26:45;12.30;;;11.02;;
13649;SDS011;6898;50.918;4.688;2022-09-12T01:32:04;12.50;;;11.05;;
13649;SDS011;6898;50.918;4.688;2022-09-12T01:34:37;12.90;;;11.57;;
13649;SDS011;6898;50.918;4.688;2022-09-12T01:37:20;13.63;;;12.23;;
13649;SDS011;6898;50.918;4.688;2022-09-12T01:39:54;13.07;;;11.77;;
13649;SDS011;6898;50.918;4.688;2022-09-12T01:42:26;13.52;;;11.63;;
13649;SDS011;6898;50.918;4.688;2022-09-12T01:44:58;12.73;;;11.43;;
13649;SDS011;6898;50.918;4.688;2022-09-12T01:47:33;13.15;;;11.75;;
13649;SDS011;6898;50.918;4.688;2022-09-12T01:50:07;13.25;;;11.88;;
13649;SDS011;6898;50.918;4.688;2022-09-12T01:52:38;13.80;;;11.73;;
13649;SDS011;6898;50.918;4.688;2022-09-12T01:55:10;12.55;;;11.25;;
13649;SDS011;6898;50.918;4.688;2022-09-12T01:57:41;13.25;;;11.85;;
13649;SDS011;6898;50.918;4.688;2022-09-12T02:00:11;12.95;;;11.52;;
13649;SDS011;6898;50.918;4.688;2022-09-12T02:02:43;13.55;;;11.52;;
13649;SDS011;6898;50.918;4.688;2022-09-12T02:05:16;13.75;;;11.20;;
13649;SDS011;6898;50.918;4.688;2022-09-12T02:07:47;12.45;;;11.23;;
13649;SDS011;6898;50.918;4.688;2022-09-12T02:10:18;12.60;;;11.30;;
13649;SDS011;6898;50.918;4.688;2022-09-12T02:12:47;13.23;;;11.33;;
13649;SDS011;6898;50.918;4.688;2022-09-12T02:15:18;13.83;;;12.00;;
13649;SDS011;6898;50.918;4.688;2022-09-12T02:17:49;12.55;;;11.15;;
13649;SDS011;6898;50.918;4.688;2022-09-12T02:20:19;12.65;;;11.35;;
13649;SDS011;6898;50.918;4.688;2022-09-12T02:23:03;13.77;;;11.43;;
13649;SDS011;6898;50.918;4.688;2022-09-12T02:25:35;12.85;;;11.55;;
13649;SDS011;6898;50.918;4.688;2022-09-12T02:28:05;13.43;;;12.07;;
13649;SDS011;6898;50.918;4.688;2022-09-12T02:30:36;14.18;;;12.07;;
13649;SDS011;6898;50.918;4.688;2022-09-12T02:33:09;14.07;;;11.43;;
13649;SDS011;6898;50.918;4.688;2022-09-12T02:35:43;14.23;;;12.57;;
13649;SDS011;6898;50.918;4.688;2022-09-12T02:38:15;14.40;;;12.38;;
13649;SDS011;6898;50.918;4.688;2022-09-12T02:40:47;15.05;;;12.45;;
13649;SDS011;6898;50.918;4.688;2022-09-12T02:43:15;14.50;;;12.45;;
13649;SDS011;6898;50.918;4.688;2022-09-12T02:45:44;14.38;;;12.25;;
13649;SDS011;6898;50.918;4.688;2022-09-12T02:48:14;15.40;;;12.35;;
13649;SDS011;6898;50.918;4.688;2022-09-12T02:50:44;14.02;;;12.55;;
13649;SDS011;6898;50.918;4.688;2022-09-12T02:53:12;13.50;;;12.20;;
13649;SDS011;6898;50.918;4.688;2022-09-12T02:55:41;13.88;;;12.40;;
13649;SDS011;6898;50.918;4.688;2022-09-12T02:58:10;13.13;;;11.73;;
13649;SDS011;6898;50.918;4.688;2022-09-12T03:00:40;14.38;;;10.80;;
13649;SDS011;6898;50.918;4.688;2022-09-12T03:03:18;13.45;;;11.88;;
13649;SDS011;6898;50.918;4.688;2022-09-12T03:05:50;13.53;;;12.20;;
13649;SDS011;6898;50.918;4.688;2022-09-12T03:08:30;14.40;;;12.90;;
13649;SDS011;6898;50.918;4.688;2022-09-12T03:13:46;13.95;;;12.30;;
13649;SDS011;6898;50.918;4.688;2022-09-12T03:16:19;15.55;;;13.07;;
13649;SDS011;6898;50.918;4.688;2022-09-12T03:18:56;13.90;;;12.32;;
13649;SDS011;6898;50.918;4.688;2022-09-12T03:21:27;14.57;;;12.88;;
13649;SDS011;6898;50.918;4.688;2022-09-12T03:23:59;14.97;;;12.63;;
13649;SDS011;6898;50.918;4.688;2022-09-12T03:26:34;15.50;;;13.87;;
13649;SDS011;6898;50.918;4.688;2022-09-12T03:29:03;15.07;;;13.23;;
13649;SDS011;6898;50.918;4.688;2022-09-12T03:31:32;14.90;;;13.30;;
13649;SDS011;6898;50.918;4.688;2022-09-12T03:34:02;15.10;;;13.30;;
13649;SDS011;6898;50.918;4.688;2022-09-12T03:36:31;15.60;;;13.80;;
13649;SDS011;6898;50.918;4.688;2022-09-12T03:38:59;15.10;;;13.50;;
13649;SDS011;6898;50.918;4.688;2022-09-12T03:41:27;14.70;;;13.20;;
13649;SDS011;6898;50.918;4.688;2022-09-12T03:43:56;14.37;;;12.70;;
13649;SDS011;6898;50.918;4.688;2022-09-12T03:46:24;15.30;;;12.90;;
13649;SDS011;6898;50.918;4.688;2022-09-12T03:48:53;14.18;;;12.68;;
13649;SDS011;6898;50.918;4.688;2022-09-12T03:51:23;15.45;;;13.77;;
13649;SDS011;6898;50.918;4.688;2022-09-12T03:53:51;15.82;;;14.23;;
13649;SDS011;6898;50.918;4.688;2022-09-12T03:56:20;17.02;;;14.77;;
13649;SDS011;6898;50.918;4.688;2022-09-12T03:58:48;19.55;;;15.45;;
13649;SDS011;6898;50.918;4.688;2022-09-12T04:01:17;18.95;;;15.93;;
13649;SDS011;6898;50.918;4.688;2022-09-12T04:03:46;17.73;;;15.27;;
13649;SDS011;6898;50.918;4.688;2022-09-12T04:06:16;17.73;;;15.82;;
13649;SDS011;6898;50.918;4.688;2022-09-12T04:08:48;17.55;;;14.95;;
13649;SDS011;6898;50.918;4.688;2022-09-12T04:11:17;17.23;;;15.43;;
13649;SDS011;6898;50.918;4.688;2022-09-12T04:13:46;19.77;;;16.05;;
13649;SDS011;6898;50.918;4.688;2022-09-12T04:16:14;19.17;;;15.30;;
13649;SDS011;6898;50.918;4.688;2022-09-12T04:18:44;19.45;;;16.25;;
13649;SDS011;6898;50.918;4.688;2022-09-12T04:21:14;20.60;;;15.63;;
13649;SDS011;6898;50.918;4.688;2022-09-12T04:23:42;18.50;;;16.08;;
13649;SDS011;6898;50.918;4.688;2022-09-12T04:26:12;18.15;;;16.10;;
13649;SDS011;6898;50.918;4.688;2022-09-12T04:28:42;19.00;;;16.23;;
13649;SDS011;6898;50.918;4.688;2022-09-12T04:31:12;17.75;;;15.85;;
13649;SDS011;6898;50.918;4.688;2022-09-12T04:33:43;20.07;;;15.90;;
13649;SDS011;6898;50.918;4.688;2022-09-12T04:36:12;19.20;;;16.00;;
13649;SDS011;6898;50.918;4.688;2022-09-12T04:38:42;17.42;;;15.52;;
13649;SDS011;6898;50.918;4.688;2022-09-12T04:41:11;19.00;;;15.63;;
13649;SDS011;6898;50.918;4.688;2022-09-12T04:43:41;20.70;;;16.38;;
13649;SDS011;6898;50.918;4.688;2022-09-12T04:46:12;18.63;;;15.00;;
13649;SDS011;6898;50.918;4.688;2022-09-12T04:48:42;19.77;;;16.80;;
13649;SDS011;6898;50.918;4.688;2022-09-12T04:51:12;19.85;;;17.70;;
13649;SDS011;6898;50.918;4.688;2022-09-12T04:53:41;21.17;;;17.98;;
13649;SDS011;6898;50.918;4.688;2022-09-12T04:56:10;22.63;;;18.90;;
13649;SDS011;6898;50.918;4.688;2022-09-12T04:58:40;23.30;;;19.55;;
13649;SDS011;6898;50.918;4.688;2022-09-12T05:01:09;24.10;;;19.48;;
13649;SDS011;6898;50.918;4.688;2022-09-12T05:03:39;22.25;;;18.40;;
13649;SDS011;6898;50.918;4.688;2022-09-12T05:06:09;22.05;;;19.25;;
13649;SDS011;6898;50.918;4.688;2022-09-12T05:08:38;22.90;;;19.27;;
13649;SDS011;6898;50.918;4.688;2022-09-12T05:11:08;24.77;;;19.63;;
13649;SDS011;6898;50.918;4.688;2022-09-12T05:13:38;22.50;;;18.98;;
13649;SDS011;6898;50.918;4.688;2022-09-12T05:16:08;21.88;;;19.48;;
13649;SDS011;6898;50.918;4.688;2022-09-12T05:18:37;23.75;;;19.98;;
13649;SDS011;6898;50.918;4.688;2022-09-12T05:21:06;23.98;;;19.15;;
13649;SDS011;6898;50.918;4.688;2022-09-12T05:23:35;25.17;;;19.42;;
13649;SDS011;6898;50.918;4.688;2022-09-12T05:26:04;23.63;;;19.58;;
13649;SDS011;6898;50.918;4.688;2022-09-12T05:28:33;21.27;;;18.33;;
13649;SDS011;6898;50.918;4.688;2022-09-12T05:31:03;22.23;;;19.08;;
13649;SDS011;6898;50.918;4.688;2022-09-12T05:33:34;20.42;;;18.20;;
13649;SDS011;6898;50.918;4.688;2022-09-12T05:36:03;20.87;;;17.93;;
13649;SDS011;6898;50.918;4.688;2022-09-12T05:38:33;26.27;;;19.27;;
13649;SDS011;6898;50.918;4.688;2022-09-12T05:41:02;21.55;;;18.05;;
13649;SDS011;6898;50.918;4.688;2022-09-12T05:43:31;20.77;;;17.45;;
13649;SDS011;6898;50.918;4.688;2022-09-12T05:46:00;20.92;;;17.27;;
13649;SDS011;6898;50.918;4.688;2022-09-12T05:48:29;21.88;;;17.52;;
13649;SDS011;6898;50.918;4.688;2022-09-12T05:51:01;20.75;;;17.25;;
13649;SDS011;6898;50.918;4.688;2022-09-12T05:53:30;21.07;;;17.93;;
13649;SDS011;6898;50.918;4.688;2022-09-12T05:56:05;22.92;;;17.35;;
13649;SDS011;6898;50.918;4.688;2022-09-12T05:58:35;20.92;;;17.67;;
13649;SDS011;6898;50.918;4.688;2022-09-12T06:01:05;19.63;;;16.77;;
13649;SDS011;6898;50.918;4.688;2022-09-12T06:03:34;19.42;;;16.88;;
13649;SDS011;6898;50.918;4.688;2022-09-12T06:06:04;21.95;;;16.98;;
13649;SDS011;6898;50.918;4.688;2022-09-12T06:08:33;20.97;;;17.10;;
13649;SDS011;6898;50.918;4.688;2022-09-12T06:11:03;22.17;;;16.52;;
13649;SDS011;6898;50.918;4.688;2022-09-12T06:13:32;22.42;;;18.17;;
13649;SDS011;6898;50.918;4.688;2022-09-12T06:16:03;18.85;;;16.38;;
13649;SDS011;6898;50.918;4.688;2022-09-12T06:18:31;19.75;;;16.05;;
13649;SDS011;6898;50.918;4.688;2022-09-12T06:21:01;18.98;;;14.80;;
13649;SDS011;6898;50.918;4.688;2022-09-12T06:23:31;17.75;;;15.25;;
13649;SDS011;6898;50.918;4.688;2022-09-12T06:26:00;18.40;;;15.00;;
13649;SDS011;6898;50.918;4.688;2022-09-12T06:28:29;17.23;;;14.63;;
13649;SDS011;6898;50.918;4.688;2022-09-12T06:31:01;18.45;;;16.23;;
13649;SDS011;6898;50.918;4.688;2022-09-12T06:33:32;18.42;;;16.05;;
13649;SDS011;6898;50.918;4.688;2022-09-12T06:36:03;18.70;;;16.70;;
13649;SDS011;6898;50.918;4.688;2022-09-12T06:38:35;20.67;;;17.35;;
13649;SDS011;6898;50.918;4.688;2022-09-12T06:41:04;22.70;;;18.15;;
13649;SDS011;6898;50.918;4.688;2022-09-12T06:43:33;23.23;;;18.17;;
13649;SDS011;6898;50.918;4.688;2022-09-12T06:46:02;24.92;;;18.50;;
13649;SDS011;6898;50.918;4.688;2022-09-12T06:48:32;26.95;;;18.70;;
13649;SDS011;6898;50.918;4.688;2022-09-12T06:51:03;20.85;;;17.42;;
13649;SDS011;6898;50.918;4.688;2022-09-12T06:53:32;21.73;;;17.63;;
13649;SDS011;6898;50.918;4.688;2022-09-12T06:56:04;22.77;;;17.33;;
13649;SDS011;6898;50.918;4.688;2022-09-12T06:58:33;23.30;;;16.30;;
13649;SDS011;6898;50.918;4.688;2022-09-12T07:01:02;19.10;;;15.57;;
13649;SDS011;6898;50.918;4.688;2022-09-12T07:03:31;21.93;;;16.50;;
13649;SDS011;6898;50.918;4.688;2022-09-12T07:06:03;21.10;;;15.80;;
13649;SDS011;6898;50.918;4.688;2022-09-12T07:08:32;21.85;;;15.10;;
13649;SDS011;6898;50.918;4.688;2022-09-12T07:11:09;18.67;;;14.70;;
13649;SDS011;6898;50.918;4.688;2022-09-12T07:13:38;17.33;;;14.30;;
13649;SDS011;6898;50.918;4.688;2022-09-12T07:16:06;16.73;;;13.73;;
13649;SDS011;6898;50.918;4.688;2022-09-12T07:18:36;16.42;;;13.98;;
13649;SDS011;6898;50.918;4.688;2022-09-12T07:21:05;15.13;;;13.03;;
13649;SDS011;6898;50.918;4.688;2022-09-12T07:23:37;16.35;;;13.48;;
13649;SDS011;6898;50.918;4.688;2022-09-12T07:26:09;15.68;;;12.30;;
13649;SDS011;6898;50.918;4.688;2022-09-12T07:28:41;16.75;;;12.85;;
13649;SDS011;6898;50.918;4.688;2022-09-12T07:31:13;15.27;;;12.50;;
13649;SDS011;6898;50.918;4.688;2022-09-12T07:33:42;15.73;;;11.60;;
13649;SDS011;6898;50.918;4.688;2022-09-12T07:36:11;14.10;;;11.95;;
13649;SDS011;6898;50.918;4.688;2022-09-12T07:38:43;14.15;;;11.40;;
13649;SDS011;6898;50.918;4.688;2022-09-12T07:41:14;12.60;;;11.13;;
13649;SDS011;6898;50.918;4.688;2022-09-12T07:43:42;12.93;;;11.02;;
13649;SDS011;6898;50.918;4.688;2022-09-12T07:46:11;13.13;;;11.30;;
13649;SDS011;6898;50.918;4.688;2022-09-12T07:48:48;12.50;;;11.20;;
13649;SDS011;6898;50.918;4.688;2022-09-12T07:51:16;15.57;;;10.45;;
13649;SDS011;6898;50.918;4.688;2022-09-12T07:53:45;11.85;;;9.93;;
13649;SDS011;6898;50.918;4.688;2022-09-12T07:56:16;12.25;;;11.00;;
13649;SDS011;6898;50.918;4.688;2022-09-12T07:58:45;11.30;;;9.80;;
13649;SDS011;6898;50.918;4.688;2022-09-12T08:01:14;10.68;;;9.52;;
13649;SDS011;6898;50.918;4.688;2022-09-12T08:03:44;11.45;;;9.85;;
13649;SDS011;6898;50.918;4.688;2022-09-12T08:06:13;11.25;;;9.88;;
13649;SDS011;6898;50.918;4.688;2022-09-12T08:08:42;11.32;;;9.55;;
13649;SDS011;6898;50.918;4.688;2022-09-12T08:11:12;11.33;;;9.53;;
13649;SDS011;6898;50.918;4.688;2022-09-12T08:13:42;13.80;;;9.43;;
13649;SDS011;6898;50.918;4.688;2022-09-12T08:16:13;11.57;;;9.27;;
13649;SDS011;6898;50.918;4.688;2022-09-12T08:18:41;14.00;;;9.63;;
13649;SDS011;6898;50.918;4.688;2022-09-12T08:21:11;10.77;;;9.27;;
13649;SDS011;6898;50.918;4.688;2022-09-12T08:23:39;9.90;;;8.90;;
13649;SDS011;6898;50.918;4.688;2022-09-12T08:26:08;9.68;;;8.50;;
13649;SDS011;6898;50.918;4.688;2022-09-12T08:28:37;8.88;;;7.47;;
13649;SDS011;6898;50.918;4.688;2022-09-12T08:31:08;9.43;;;7.25;;
13649;SDS011;6898;50.918;4.688;2022-09-12T08:33:37;8.35;;;7.43;;
13649;SDS011;6898;50.918;4.688;2022-09-12T08:36:07;9.23;;;6.90;;
13649;SDS011;6898;50.918;4.688;2022-09-12T08:38:36;8.98;;;7.45;;
13649;SDS011;6898;50.918;4.688;2022-09-12T08:41:06;8.38;;;6.78;;
13649;SDS011;6898;50.918;4.688;2022-09-12T08:43:41;9.70;;;7.10;;
13649;SDS011;6898;50.918;4.688;2022-09-12T08:46:14;7.50;;;6.70;;
13649;SDS011;6898;50.918;4.688;2022-09-12T08:48:44;8.05;;;6.50;;
13649;SDS011;6898;50.918;4.688;2022-09-12T08:51:14;8.88;;;7.10;;
13649;SDS011;6898;50.918;4.688;2022-09-12T08:53:45;6.75;;;5.90;;
13649;SDS011;6898;50.918;4.688;2022-09-12T08:56:14;6.73;;;6.03;;
13649;SDS011;6898;50.918;4.688;2022-09-12T08:58:43;7.03;;;5.65;;
13649;SDS011;6898;50.918;4.688;2022-09-12T09:01:16;6.25;;;5.65;;
13649;SDS011;6898;50.918;4.688;2022-09-12T09:04:01;6.10;;;5.40;;
13649;SDS011;6898;50.918;4.688;2022-09-12T09:06:39;11.25;;;5.38;;
13649;SDS011;6898;50.918;4.688;2022-09-12T09:09:10;6.43;;;5.50;;
13649;SDS011;6898;50.918;4.688;2022-09-12T09:11:44;8.32;;;5.53;;
13649;SDS011;6898;50.918;4.688;2022-09-12T09:14:21;7.45;;;5.13;;
13649;SDS011;6898;50.918;4.688;2022-09-12T09:17:20;7.97;;;5.95;;
13649;SDS011;6898;50.918;4.688;2022-09-12T09:19:53;7.00;;;5.47;;
13649;SDS011;6898;50.918;4.688;2022-09-12T09:22:28;6.28;;;5.25;;
13649;SDS011;6898;50.918;4.688;2022-09-12T09:25:00;6.22;;;5.43;;
13649;SDS011;6898;50.918;4.688;2022-09-12T09:27:33;6.03;;;5.40;;
13649;SDS011;6898;50.918;4.688;2022-09-12T09:30:07;5.97;;;5.30;;
13649;SDS011;6898;50.918;4.688;2022-09-12T09:32:38;6.50;;;5.18;;
13649;SDS011;6898;50.918;4.688;2022-09-12T09:35:13;7.03;;;5.60;;
13649;SDS011;6898;50.918;4.688;2022-09-12T09:37:42;5.70;;;4.72;;
13649;SDS011;6898;50.918;4.688;2022-09-12T09:40:14;4.57;;;3.85;;
13649;SDS011;6898;50.918;4.688;2022-09-12T09:42:44;5.83;;;4.70;;
13649;SDS011;6898;50.918;4.688;2022-09-12T09:45:20;5.75;;;5.07;;
13649;SDS011;6898;50.918;4.688;2022-09-12T09:47:52;5.55;;;4.00;;
13649;SDS011;6898;50.918;4.688;2022-09-12T09:50:23;5.40;;;4.13;;
13649;SDS011;6898;50.918;4.688;2022-09-12T09:52:51;6.37;;;4.30;;
13649;SDS011;6898;50.918;4.688;2022-09-12T09:55:22;4.05;;;3.60;;
13649;SDS011;6898;50.918;4.688;2022-09-12T09:57:52;4.00;;;3.60;;
13649;SDS011;6898;50.918;4.688;2022-09-12T10:00:30;4.18;;;3.78;;
13649;SDS011;6898;50.918;4.688;2022-09-12T10:03:01;6.07;;;4.03;;
13649;SDS011;6898;50.918;4.688;2022-09-12T10:05:33;5.50;;;4.00;;
13649;SDS011;6898;50.918;4.688;2022-09-12T10:08:03;4.60;;;3.83;;
13649;SDS011;6898;50.918;4.688;2022-09-12T10:10:33;4.30;;;3.67;;
13649;SDS011;6898;50.918;4.688;2022-09-12T10:13:05;5.75;;;3.75;;
13649;SDS011;6898;50.918;4.688;2022-09-12T10:15:35;4.33;;;3.70;;
13649;SDS011;6898;50.918;4.688;2022-09-12T10:18:05;4.35;;;3.60;;
13649;SDS011;6898;50.918;4.688;2022-09-12T10:20:34;8.38;;;4.00;;
13649;SDS011;6898;50.918;4.688;2022-09-12T10:23:19;4.87;;;4.13;;
13649;SDS011;6898;50.918;4.688;2022-09-12T10:25:51;4.53;;;4.03;;
13649;SDS011;6898;50.918;4.688;2022-09-12T10:28:22;4.28;;;3.88;;
13649;SDS011;6898;50.918;4.688;2022-09-12T10:30:52;5.35;;;4.20;;
13649;SDS011;6898;50.918;4.688;2022-09-12T10:33:23;6.88;;;4.60;;
13649;SDS011;6898;50.918;4.688;2022-09-12T10:35:52;4.15;;;3.70;;
13649;SDS011;6898;50.918;4.688;2022-09-12T10:38:22;4.40;;;3.90;;
13649;SDS011;6898;50.918;4.688;2022-09-12T10:40:55;4.90;;;3.40;;
13649;SDS011;6898;50.918;4.688;2022-09-12T10:43:28;4.93;;;3.40;;
13649;SDS011;6898;50.918;4.688;2022-09-12T10:45:57;4.03;;;3.58;;
13649;SDS011;6898;50.918;4.688;2022-09-12T10:48:28;3.40;;;3.10;;
13649;SDS011;6898;50.918;4.688;2022-09-12T10:50:58;3.80;;;3.20;;
13649;SDS011;6898;50.918;4.688;2022-09-12T10:53:30;3.80;;;3.00;;
13649;SDS011;6898;50.918;4.688;2022-09-12T10:56:04;3.40;;;3.10;;
13649;SDS011;6898;50.918;4.688;2022-09-12T11:01:27;3.97;;;2.90;;
13649;SDS011;6898;50.918;4.688;2022-09-12T11:04:12;4.23;;;2.80;;
13649;SDS011;6898;50.918;4.688;2022-09-12T11:06:45;3.27;;;2.90;;
13649;SDS011;6898;50.918;4.688;2022-09-12T11:09:17;3.83;;;2.72;;
13649;SDS011;6898;50.918;4.688;2022-09-12T11:11:51;2.90;;;2.50;;
13649;SDS011;6898;50.918;4.688;2022-09-12T11:14:27;3.20;;;2.53;;
13649;SDS011;6898;50.918;4.688;2022-09-12T11:17:00;3.63;;;2.58;;
13649;SDS011;6898;50.918;4.688;2022-09-12T11:19:38;3.85;;;2.90;;
13649;SDS011;6898;50.918;4.688;2022-09-12T11:22:17;4.65;;;2.80;;
13649;SDS011;6898;50.918;4.688;2022-09-12T11:27:49;3.15;;;2.42;;
13649;SDS011;6898;50.918;4.688;2022-09-12T11:30:18;3.22;;;2.53;;
13649;SDS011;6898;50.918;4.688;2022-09-12T11:32:57;2.90;;;2.55;;
13649;SDS011;6898;50.918;4.688;2022-09-12T11:35:32;3.20;;;2.80;;
13649;SDS011;6898;50.918;4.688;2022-09-12T11:38:05;2.80;;;2.40;;
13649;SDS011;6898;50.918;4.688;2022-09-12T11:40:37;3.07;;;2.30;;
13649;SDS011;6898;50.918;4.688;2022-09-12T11:43:11;2.77;;;2.40;;
13649;SDS011;6898;50.918;4.688;2022-09-12T11:45:41;2.40;;;2.20;;
13649;SDS011;6898;50.918;4.688;2022-09-12T11:48:11;2.40;;;2.20;;
13649;SDS011;6898;50.918;4.688;2022-09-12T11:50:44;3.22;;;2.33;;
13649;SDS011;6898;50.918;4.688;2022-09-12T11:53:14;2.80;;;2.00;;
13649;SDS011;6898;50.918;4.688;2022-09-12T11:55:46;3.07;;;2.20;;
13649;SDS011;6898;50.918;4.688;2022-09-12T11:58:16;2.30;;;2.10;;
13649;SDS011;6898;50.918;4.688;2022-09-12T12:00:46;2.30;;;2.10;;
13649;SDS011;6898;50.918;4.688;2022-09-12T12:03:17;4.75;;;2.20;;
13649;SDS011;6898;50.918;4.688;2022-09-12T12:05:50;4.07;;;2.20;;
13649;SDS011;6898;50.918;4.688;2022-09-12T12:08:20;3.00;;;2.20;;
13649;SDS011;6898;50.918;4.688;2022-09-12T12:10:49;3.67;;;2.42;;
13649;SDS011;6898;50.918;4.688;2022-09-12T12:13:20;3.08;;;2.30;;
13649;SDS011;6898;50.918;4.688;2022-09-12T12:15:50;3.37;;;2.40;;
13649;SDS011;6898;50.918;4.688;2022-09-12T12:18:22;2.95;;;2.40;;
13649;SDS011;6898;50.918;4.688;2022-09-12T12:20:53;3.88;;;2.22;;
13649;SDS011;6898;50.918;4.688;2022-09-12T12:23:22;3.17;;;2.00;;
13649;SDS011;6898;50.918;4.688;2022-09-12T12:25:51;3.10;;;2.10;;
13649;SDS011;6898;50.918;4.688;2022-09-12T12:31:07;3.73;;;2.00;;
13649;SDS011;6898;50.918;4.688;2022-09-12T12:34:00;4.75;;;2.17;;
13649;SDS011;6898;50.918;4.688;2022-09-12T12:36:35;4.60;;;2.35;;
13649;SDS011;6898;50.918;4.688;2022-09-12T12:41:52;5.00;;;2.40;;
13649;SDS011;6898;50.918;4.688;2022-09-12T12:47:12;3.28;;;2.20;;
13649;SDS011;6898;50.918;4.688;2022-09-12T12:49:47;2.33;;;2.10;;
13649;SDS011;6898;50.918;4.688;2022-09-12T12:52:19;2.70;;;2.30;;
13649;SDS011;6898;50.918;4.688;2022-09-12T12:54:51;4.60;;;2.20;;
13649;SDS011;6898;50.918;4.688;2022-09-12T12:57:30;3.92;;;2.28;;
13649;SDS011;6898;50.918;4.688;2022-09-12T12:59:59;2.50;;;2.30;;
13649;SDS011;6898;50.918;4.688;2022-09-12T13:02:30;2.75;;;2.30;;
13649;SDS011;6898;50.918;4.688;2022-09-12T13:05:00;3.78;;;2.35;;
13649;SDS011;6898;50.918;4.688;2022-09-12T13:07:33;2.78;;;2.10;;
13649;SDS011;6898;50.918;4.688;2022-09-12T13:10:03;3.85;;;2.28;;
13649;SDS011;6898;50.918;4.688;2022-09-12T13:12:32;5.15;;;2.28;;
13649;SDS011;6898;50.918;4.688;2022-09-12T13:15:05;3.42;;;2.33;;
13649;SDS011;6898;50.918;4.688;2022-09-12T13:17:51;4.80;;;2.28;;
13649;SDS011;6898;50.918;4.688;2022-09-12T13:20:21;3.20;;;2.10;;
13649;SDS011;6898;50.918;4.688;2022-09-12T13:22:55;3.78;;;2.00;;
13649;SDS011;6898;50.918;4.688;2022-09-12T13:25:25;4.00;;;2.10;;
13649;SDS011;6898;50.918;4.688;2022-09-12T13:27:58;3.67;;;2.05;;
13649;SDS011;6898;50.918;4.688;2022-09-12T13:30:27;4.10;;;2.10;;
13649;SDS011;6898;50.918;4.688;2022-09-12T13:32:56;3.90;;;2.20;;
13649;SDS011;6898;50.918;4.688;2022-09-12T13:35:27;2.60;;;1.90;;
13649;SDS011;6898;50.918;4.688;2022-09-12T13:38:00;5.32;;;2.20;;
13649;SDS011;6898;50.918;4.688;2022-09-12T13:40:32;3.75;;;1.83;;
13649;SDS011;6898;50.918;4.688;2022-09-12T13:43:07;3.28;;;2.10;;
13649;SDS011;6898;50.918;4.688;2022-09-12T13:45:36;2.50;;;2.00;;
13649;SDS011;6898;50.918;4.688;2022-09-12T13:48:06;3.42;;;2.15;;
13649;SDS011;6898;50.918;4.688;2022-09-12T13:50:38;3.90;;;1.95;;
13649;SDS011;6898;50.918;4.688;2022-09-12T13:53:11;3.53;;;2.00;;
13649;SDS011;6898;50.918;4.688;2022-09-12T13:55:41;3.93;;;1.90;;
13649;SDS011;6898;50.918;4.688;2022-09-12T13:58:15;3.37;;;2.00;;
13649;SDS011;6898;50.918;4.688;2022-09-12T14:00:44;4.45;;;2.03;;
13649;SDS011;6898;50.918;4.688;2022-09-12T14:03:23;3.35;;;2.10;;
13649;SDS011;6898;50.918;4.688;2022-09-12T14:06:10;2.42;;;2.00;;
13649;SDS011;6898;50.918;4.688;2022-09-12T14:08:43;2.40;;;2.00;;
13649;SDS011;6898;50.918;4.688;2022-09-12T14:11:16;2.80;;;2.08;;
13649;SDS011;6898;50.918;4.688;2022-09-12T14:13:46;2.20;;;1.90;;
13649;SDS011;6898;50.918;4.688;2022-09-12T14:16:14;2.80;;;2.00;;
13649;SDS011;6898;50.918;4.688;2022-09-12T14:18:43;3.30;;;2.00;;
13649;SDS011;6898;50.918;4.688;2022-09-12T14:21:18;3.35;;;2.00;;
13649;SDS011;6898;50.918;4.688;2022-09-12T14:23:49;2.22;;;1.90;;
13649;SDS011;6898;50.918;4.688;2022-09-12T14:26:18;4.18;;;2.17;;
13649;SDS011;6898;50.918;4.688;2022-09-12T14:28:48;3.78;;;2.05;;
13649;SDS011;6898;50.918;4.688;2022-09-12T14:31:21;2.20;;;2.00;;
13649;SDS011;6898;50.918;4.688;2022-09-12T14:33:50;2.72;;;1.85;;
13649;SDS011;6898;50.918;4.688;2022-09-12T14:36:21;3.90;;;2.00;;
13649;SDS011;6898;50.918;4.688;2022-09-12T14:38:52;3.20;;;2.00;;
13649;SDS011;6898;50.918;4.688;2022-09-12T14:41:23;2.15;;;1.95;;
13649;SDS011;6898;50.918;4.688;2022-09-12T14:43:54;2.70;;;2.00;;
13649;SDS011;6898;50.918;4.688;2022-09-12T14:46:24;4.95;;;2.20;;
13649;SDS011;6898;50.918;4.688;2022-09-12T14:48:54;4.93;;;2.00;;
13649;SDS011;6898;50.918;4.688;2022-09-12T14:51:25;3.40;;;2.00;;
13649;SDS011;6898;50.918;4.688;2022-09-12T14:53:55;5.07;;;2.00;;
13649;SDS011;6898;50.918;4.688;2022-09-12T14:56:36;2.30;;;1.95;;
13649;SDS011;6898;50.918;4.688;2022-09-12T14:59:27;4.18;;;2.03;;
13649;SDS011;6898;50.918;4.688;2022-09-12T15:04:44;4.03;;;1.90;;
13649;SDS011;6898;50.918;4.688;2022-09-12T15:07:13;2.80;;;1.90;;
13649;SDS011;6898;50.918;4.688;2022-09-12T15:09:43;3.75;;;2.08;;
13649;SDS011;6898;50.918;4.688;2022-09-12T15:12:12;3.60;;;1.90;;
13649;SDS011;6898;50.918;4.688;2022-09-12T15:14:41;3.35;;;2.00;;
13649;SDS011;6898;50.918;4.688;2022-09-12T15:17:09;3.22;;;2.03;;
13649;SDS011;6898;50.918;4.688;2022-09-12T15:19:37;4.35;;;1.88;;
13649;SDS011;6898;50.918;4.688;2022-09-12T15:22:08;5.50;;;2.30;;
13649;SDS011;6898;50.918;4.688;2022-09-12T15:24:37;4.53;;;2.10;;
13649;SDS011;6898;50.918;4.688;2022-09-12T15:27:09;3.50;;;1.70;;
13649;SDS011;6898;50.918;4.688;2022-09-12T15:29:38;3.97;;;1.70;;
13649;SDS011;6898;50.918;4.688;2022-09-12T15:32:08;4.38;;;1.77;;
13649;SDS011;6898;50.918;4.688;2022-09-12T15:34:44;2.65;;;1.73;;